createdAt,value
2019-03-11T00:00:40.655Z,6.30
2019-03-11T00:03:08.707Z,6.17
2019-03-11T00:05:36.752Z,3.80
2019-03-11T00:08:06.335Z,4.07
2019-03-11T00:10:34.329Z,4.53
2019-03-11T00:13:02.371Z,3.87
2019-03-11T00:15:30.621Z,3.57
2019-03-11T00:17:58.665Z,3.93
2019-03-11T00:20:28.529Z,4.03
2019-03-11T00:22:56.793Z,3.80
2019-03-11T00:25:24.873Z,5.40
2019-03-11T00:27:53.913Z,6.27
2019-03-11T00:30:23.993Z,7.23
2019-03-11T00:32:52.076Z,6.43
2019-03-11T00:35:20.132Z,5.23
2019-03-11T00:37:48.420Z,5.07
2019-03-11T00:40:16.508Z,7.87
2019-03-11T00:42:44.536Z,5.07
2019-03-11T00:45:13.106Z,6.20
2019-03-11T00:47:42.242Z,9.47
2019-03-11T00:50:10.416Z,8.60
2019-03-11T00:52:38.929Z,10.00
2019-03-11T00:55:07.151Z,8.93
2019-03-11T00:57:35.302Z,11.63
2019-03-11T01:00:03.517Z,10.30
2019-03-11T01:02:33.041Z,8.97
2019-03-11T01:05:01.106Z,8.20
2019-03-11T01:07:29.331Z,8.00
2019-03-11T01:09:57.384Z,7.73
2019-03-11T01:12:25.516Z,7.10
2019-03-11T01:14:54.983Z,5.93
2019-03-11T01:17:23.026Z,5.80
2019-03-11T01:19:52.181Z,4.43
2019-03-11T01:22:21.368Z,3.93
2019-03-11T01:24:49.409Z,3.50
2019-03-11T01:27:19.276Z,3.53
2019-03-11T01:29:47.371Z,4.77
2019-03-11T01:32:15.412Z,3.93
2019-03-11T01:34:43.465Z,3.63
2019-03-11T01:37:11.768Z,3.90
2019-03-11T01:39:39.861Z,3.80
2019-03-11T01:42:09.472Z,4.20
2019-03-11T01:44:38.769Z,5.07
2019-03-11T01:47:08.284Z,5.10
2019-03-11T01:49:36.320Z,5.27
2019-03-11T01:52:04.721Z,5.20
2019-03-11T01:54:33.956Z,5.90
2019-03-11T01:57:03.152Z,5.53
2019-03-11T01:59:33.150Z,6.47
2019-03-11T02:02:01.237Z,6.43
2019-03-11T02:04:29.290Z,6.40
2019-03-11T02:06:57.375Z,6.70
2019-03-11T02:09:25.408Z,6.03
2019-03-11T02:11:53.440Z,5.50
2019-03-11T02:14:22.584Z,5.00
2019-03-11T02:16:50.623Z,5.30
2019-03-11T02:19:18.787Z,5.57
2019-03-11T02:21:46.863Z,5.17
2019-03-11T02:24:14.934Z,5.03
2019-03-11T02:26:42.993Z,5.93
2019-03-11T02:29:11.139Z,5.53
2019-03-11T02:31:39.180Z,6.07
2019-03-11T02:34:07.269Z,5.90
2019-03-11T02:36:35.465Z,6.60
2019-03-11T02:39:03.888Z,5.90
2019-03-11T02:41:31.933Z,6.10
2019-03-11T02:44:00.393Z,5.73
2019-03-11T02:46:28.934Z,5.80
2019-03-11T02:48:57.053Z,5.63
2019-03-11T02:51:25.147Z,5.43
2019-03-11T02:53:54.224Z,5.27
2019-03-11T02:56:22.274Z,4.87
2019-03-11T02:58:51.821Z,5.87
2019-03-11T03:01:37.084Z,4.30
2019-03-11T03:04:09.637Z,4.10
2019-03-11T03:06:37.742Z,3.63
2019-03-11T03:09:08.152Z,4.13
2019-03-11T03:11:36.255Z,4.87
2019-03-11T03:14:04.413Z,3.90
2019-03-11T03:16:32.620Z,5.37
2019-03-11T03:19:01.922Z,3.67
2019-03-11T03:21:30.004Z,4.07
2019-03-11T03:23:58.093Z,3.83
2019-03-11T03:26:26.340Z,3.70
2019-03-11T03:28:54.403Z,3.90
2019-03-11T03:31:22.429Z,4.67
2019-03-11T03:33:50.521Z,4.50
2019-03-11T03:36:18.624Z,5.10
2019-03-11T03:38:46.692Z,6.30
2019-03-11T03:41:14.987Z,8.27
2019-03-11T03:43:43.008Z,8.93
2019-03-11T03:46:18.532Z,7.73
2019-03-11T03:48:41.153Z,9.93
2019-03-11T03:51:09.420Z,11.57
2019-03-11T03:53:37.453Z,9.57
2019-03-11T03:56:05.560Z,10.53
2019-03-11T03:58:33.611Z,10.20
2019-03-11T04:01:02.029Z,12.27
2019-03-11T04:03:30.321Z,11.83
2019-03-11T04:05:59.026Z,10.70
2019-03-11T04:08:27.077Z,7.87
2019-03-11T04:10:55.153Z,8.20
2019-03-11T04:13:23.250Z,9.20
2019-03-11T04:15:51.282Z,12.03
2019-03-11T04:18:19.726Z,8.27
2019-03-11T04:20:47.893Z,8.00
2019-03-11T04:23:15.937Z,7.00
2019-03-11T04:25:44.241Z,9.30
2019-03-11T04:28:12.415Z,4.90
2019-03-11T04:30:40.460Z,6.17
2019-03-11T04:33:08.664Z,5.10
2019-03-11T04:35:37.802Z,7.83
2019-03-11T04:38:05.841Z,5.90
2019-03-11T04:40:34.223Z,8.23
2019-03-11T04:43:02.572Z,6.17
2019-03-11T04:45:30.603Z,6.47
2019-03-11T04:47:59.373Z,7.97
2019-03-11T04:50:27.435Z,6.90
2019-03-11T04:52:55.480Z,4.47
2019-03-11T04:55:23.578Z,4.50
2019-03-11T04:57:52.572Z,4.07
2019-03-11T05:00:21.956Z,4.13
2019-03-11T05:02:50.191Z,3.03
2019-03-11T05:05:18.568Z,4.07
2019-03-11T05:07:46.661Z,4.33
2019-03-11T05:10:16.339Z,3.23
2019-03-11T05:12:44.555Z,4.03
2019-03-11T05:15:12.830Z,4.70
2019-03-11T05:17:42.354Z,2.73
2019-03-11T05:20:10.682Z,4.43
2019-03-11T05:22:38.703Z,4.93
2019-03-11T05:25:07.450Z,3.93
2019-03-11T05:27:35.589Z,5.90
2019-03-11T05:30:03.872Z,4.57
2019-03-11T05:32:31.959Z,3.43
2019-03-11T05:35:00.370Z,4.40
2019-03-11T05:37:29.136Z,4.62
2019-03-11T05:39:57.327Z,4.03
2019-03-11T05:42:25.363Z,5.23
2019-03-11T05:44:54.895Z,6.07
2019-03-11T05:47:23.241Z,6.57
2019-03-11T05:49:52.764Z,10.37
2019-03-11T05:52:20.808Z,8.73
2019-03-11T05:54:48.999Z,9.83
2019-03-11T05:57:17.041Z,7.17
2019-03-11T05:59:45.109Z,7.73
2019-03-11T06:02:14.988Z,10.47
2019-03-11T06:04:43.023Z,7.93
2019-03-11T06:07:11.076Z,5.10
2019-03-11T06:09:39.656Z,8.10
2019-03-11T06:12:07.917Z,7.73
2019-03-11T06:14:35.973Z,6.07
2019-03-11T06:17:04.171Z,5.87
2019-03-11T06:19:32.229Z,6.07
2019-03-11T06:22:18.227Z,7.13
2019-03-11T06:24:46.921Z,8.20
2019-03-11T06:27:15.083Z,7.60
2019-03-11T06:29:43.932Z,6.30
2019-03-11T06:32:11.992Z,7.37
2019-03-11T06:34:40.018Z,7.80
2019-03-11T06:37:08.401Z,8.67
2019-03-11T06:39:36.664Z,11.87
2019-03-11T06:42:04.696Z,7.87
2019-03-11T06:44:32.796Z,8.67
2019-03-11T06:47:00.852Z,8.07
2019-03-11T06:49:29.266Z,11.85
2019-03-11T06:51:57.676Z,11.50
2019-03-11T06:54:25.759Z,9.97
2019-03-11T06:56:53.876Z,10.60
2019-03-11T06:59:22.140Z,7.80
2019-03-11T07:01:50.485Z,9.70
2019-03-11T07:04:18.632Z,11.50
2019-03-11T07:06:46.736Z,8.93
2019-03-11T07:09:14.877Z,12.60
2019-03-11T07:11:43.085Z,15.20
2019-03-11T07:14:11.295Z,12.53
2019-03-11T07:16:39.344Z,13.50
2019-03-11T07:19:07.408Z,10.33
2019-03-11T07:21:35.568Z,11.30
2019-03-11T07:24:03.609Z,13.83
2019-03-11T07:26:31.673Z,15.37
2019-03-11T07:28:59.848Z,8.63
2019-03-11T07:31:27.900Z,14.90
2019-03-11T07:33:55.949Z,12.37
2019-03-11T07:36:24.492Z,11.53
2019-03-11T07:38:52.593Z,12.67
2019-03-11T07:41:20.648Z,15.53
2019-03-11T07:43:48.836Z,9.00
2019-03-11T07:46:16.898Z,10.87
2019-03-11T07:48:44.944Z,13.27
2019-03-11T07:51:13.055Z,11.23
2019-03-11T07:53:41.105Z,12.50
2019-03-11T07:56:09.160Z,14.93
2019-03-11T07:58:37.289Z,9.90
2019-03-11T08:01:05.339Z,12.20
2019-03-11T08:03:33.396Z,10.13
2019-03-11T08:06:01.568Z,13.63
2019-03-11T08:08:29.623Z,11.77
2019-03-11T08:10:57.660Z,11.27
2019-03-11T08:13:25.756Z,11.83
2019-03-11T08:15:54.094Z,11.20
2019-03-11T08:18:22.169Z,14.20
2019-03-11T08:20:50.310Z,14.63
2019-03-11T08:23:18.364Z,10.97
2019-03-11T08:25:46.399Z,10.47
2019-03-11T08:28:14.593Z,10.40
2019-03-11T08:30:42.637Z,10.40
2019-03-11T08:33:10.693Z,11.30
2019-03-11T08:35:38.799Z,9.93
2019-03-11T08:38:07.169Z,12.07
2019-03-11T08:40:35.222Z,10.20
2019-03-11T08:43:03.567Z,6.63
2019-03-11T08:45:31.631Z,10.13
2019-03-11T08:47:59.698Z,14.33
2019-03-11T08:50:27.844Z,8.53
2019-03-11T08:52:55.905Z,10.23
2019-03-11T08:55:23.960Z,10.67
2019-03-11T08:57:52.116Z,10.53
2019-03-11T09:00:20.170Z,7.07
2019-03-11T09:02:48.202Z,8.37
2019-03-11T09:05:16.860Z,11.10
2019-03-11T09:07:44.896Z,8.23
2019-03-11T09:10:13.066Z,8.37
2019-03-11T09:12:41.242Z,7.83
2019-03-11T09:15:10.250Z,8.80
2019-03-11T09:17:38.650Z,8.13
2019-03-11T09:20:06.968Z,6.17
2019-03-11T09:22:35.015Z,7.20
2019-03-11T09:25:03.063Z,8.17
2019-03-11T09:27:31.367Z,8.43
2019-03-11T09:29:59.573Z,6.47
2019-03-11T09:32:27.613Z,6.77
2019-03-11T09:34:55.692Z,10.57
2019-03-11T09:37:23.772Z,9.20
2019-03-11T09:39:51.824Z,6.57
2019-03-11T09:42:19.964Z,10.23
2019-03-11T09:44:48.043Z,8.63
2019-03-11T09:47:16.055Z,8.67
2019-03-11T09:49:44.198Z,10.33
2019-03-11T09:52:12.247Z,7.60
2019-03-11T09:54:40.320Z,8.53
2019-03-11T09:57:08.399Z,6.57
2019-03-11T09:59:36.447Z,5.20
2019-03-11T10:02:05.096Z,6.23
2019-03-11T10:04:33.213Z,6.37
2019-03-11T10:07:01.237Z,7.67
2019-03-11T10:09:29.574Z,4.97
2019-03-11T10:11:57.883Z,4.63
2019-03-11T10:14:25.923Z,4.20
2019-03-11T10:16:53.970Z,7.27
2019-03-11T10:19:22.140Z,8.10
2019-03-11T10:21:50.764Z,4.10
2019-03-11T10:24:18.841Z,5.93
2019-03-11T10:26:46.912Z,5.93
2019-03-11T10:29:14.940Z,8.30
2019-03-11T10:31:43.029Z,5.67
2019-03-11T10:34:16.066Z,5.20
2019-03-11T10:36:44.117Z,8.03
2019-03-11T10:39:12.167Z,5.07
2019-03-11T10:41:40.284Z,9.27
2019-03-11T10:44:08.322Z,8.23
2019-03-11T10:46:36.404Z,6.97
2019-03-11T10:49:04.712Z,4.90
2019-03-11T10:51:32.767Z,7.43
2019-03-11T10:54:00.808Z,6.70
2019-03-11T10:56:28.964Z,8.93
2019-03-11T10:58:57.014Z,9.07
2019-03-11T11:01:25.073Z,6.40
2019-03-11T11:03:53.232Z,6.43
2019-03-11T11:06:21.271Z,6.80
2019-03-11T11:08:49.296Z,7.03
2019-03-11T11:11:17.490Z,7.97
2019-03-11T11:13:45.529Z,4.83
2019-03-11T11:16:13.562Z,6.13
2019-03-11T11:18:41.684Z,6.63
2019-03-11T11:21:09.744Z,9.47
2019-03-11T11:23:37.802Z,4.07
2019-03-11T11:26:07.571Z,6.80
2019-03-11T11:28:35.597Z,6.30
2019-03-11T11:31:03.657Z,5.33
2019-03-11T11:33:31.949Z,4.73
2019-03-11T11:35:59.990Z,5.47
2019-03-11T11:38:28.047Z,5.07
2019-03-11T11:40:56.232Z,5.63
2019-03-11T11:43:24.277Z,4.50
2019-03-11T11:45:52.336Z,4.93
2019-03-11T11:48:20.445Z,5.93
2019-03-11T11:50:48.500Z,4.30
2019-03-11T11:53:16.580Z,3.87
2019-03-11T11:55:45.057Z,4.43
2019-03-11T11:58:13.193Z,3.37
2019-03-11T12:00:43.725Z,5.03
2019-03-11T12:03:11.833Z,2.27
2019-03-11T12:05:40.300Z,4.23
2019-03-11T12:08:08.341Z,4.80
2019-03-11T12:10:36.441Z,4.37
2019-03-11T12:13:04.498Z,4.20
2019-03-11T12:15:32.541Z,2.50
2019-03-11T12:18:00.808Z,3.80
2019-03-11T12:20:28.855Z,3.97
2019-03-11T12:22:56.897Z,3.47
2019-03-11T12:25:25.089Z,3.80
2019-03-11T12:27:54.525Z,5.10
2019-03-11T12:30:23.921Z,4.37
2019-03-11T12:32:52.103Z,3.77
2019-03-11T12:35:20.150Z,4.53
2019-03-11T12:37:48.188Z,4.90
2019-03-11T12:40:16.618Z,4.67
2019-03-11T12:42:44.741Z,5.30
2019-03-11T12:45:13.208Z,6.00
2019-03-11T12:47:41.381Z,4.47
2019-03-11T12:50:11.460Z,2.80
2019-03-11T12:52:39.512Z,3.70
2019-03-11T12:55:07.912Z,4.40
2019-03-11T12:57:35.967Z,4.27
2019-03-11T13:00:04.570Z,3.03
2019-03-11T13:02:32.681Z,3.50
2019-03-11T13:05:00.706Z,3.03
2019-03-11T13:07:28.766Z,4.30
2019-03-11T13:09:56.858Z,3.63
2019-03-11T13:12:24.900Z,2.83
2019-03-11T13:14:52.956Z,2.93
2019-03-11T13:17:21.293Z,1.87
2019-03-11T13:19:49.813Z,1.80
2019-03-11T13:22:18.215Z,2.43
2019-03-11T13:24:46.387Z,2.80
2019-03-11T13:27:14.441Z,3.10
2019-03-11T13:29:42.887Z,2.37
2019-03-11T13:32:11.037Z,2.77
2019-03-11T13:34:39.077Z,4.73
2019-03-11T13:37:07.144Z,2.23
2019-03-11T13:39:35.505Z,4.83
2019-03-11T13:42:04.537Z,3.37
2019-03-11T13:44:32.610Z,2.23
2019-03-11T13:47:00.704Z,1.57
2019-03-11T13:49:30.644Z,2.50
2019-03-11T13:51:58.427Z,2.93
2019-03-11T13:54:26.828Z,2.90
2019-03-11T13:56:54.889Z,2.60
2019-03-11T13:59:22.918Z,2.60
2019-03-11T14:01:51.021Z,3.70
2019-03-11T14:04:19.056Z,4.07
2019-03-11T14:06:47.116Z,3.40
2019-03-11T14:09:15.295Z,4.13
2019-03-11T14:11:43.277Z,5.17
2019-03-11T14:14:11.337Z,2.10
2019-03-11T14:16:39.762Z,2.13
2019-03-11T14:19:07.797Z,1.70
2019-03-11T14:21:35.848Z,1.87
2019-03-11T14:24:04.164Z,2.20
2019-03-11T14:26:32.204Z,1.90
2019-03-11T14:29:00.266Z,1.60
2019-03-11T14:31:28.444Z,1.37
2019-03-11T14:33:56.836Z,3.03
2019-03-11T14:36:24.890Z,2.30
2019-03-11T14:38:53.026Z,2.10
2019-03-11T14:41:21.080Z,2.50
2019-03-11T14:43:49.419Z,2.33
2019-03-11T14:46:17.590Z,1.50
2019-03-11T14:48:45.631Z,3.10
2019-03-11T14:51:13.695Z,1.70
2019-03-11T14:53:41.874Z,3.83
2019-03-11T14:56:10.868Z,1.93
2019-03-11T14:58:38.929Z,4.23
2019-03-11T15:01:07.330Z,3.13
2019-03-11T15:03:35.366Z,1.40
2019-03-11T15:06:03.411Z,2.97
2019-03-11T15:08:31.610Z,2.90
2019-03-11T15:11:00.187Z,2.53
2019-03-11T15:13:28.289Z,2.60
2019-03-11T15:15:56.458Z,2.30
2019-03-11T15:18:24.508Z,1.50
2019-03-11T15:20:52.551Z,1.77
2019-03-11T15:23:21.136Z,1.73
2019-03-11T15:25:49.396Z,1.57
2019-03-11T15:28:18.184Z,1.70
2019-03-11T15:30:46.448Z,1.40
2019-03-11T15:33:14.493Z,1.20
2019-03-11T15:35:42.977Z,2.17
2019-03-11T15:38:11.184Z,1.83
2019-03-11T15:40:39.220Z,1.80
2019-03-11T15:43:07.258Z,1.27
2019-03-11T15:45:38.910Z,2.27
2019-03-11T15:48:05.245Z,2.20
2019-03-11T15:50:33.340Z,1.83
2019-03-11T15:53:01.448Z,2.47
2019-03-11T15:55:29.836Z,2.23
2019-03-11T15:57:57.920Z,2.00
2019-03-11T16:00:26.044Z,3.40
2019-03-11T16:02:54.072Z,4.23
2019-03-11T16:05:22.241Z,4.10
2019-03-11T16:07:50.692Z,4.13
2019-03-11T16:10:18.938Z,4.30
2019-03-11T16:12:47.079Z,4.17
2019-03-11T16:15:15.557Z,3.80
2019-03-11T16:17:43.732Z,5.67
2019-03-11T16:20:12.276Z,4.00
2019-03-11T16:22:40.405Z,3.67
2019-03-11T16:25:09.068Z,3.63
2019-03-11T16:27:37.108Z,3.87
2019-03-11T16:30:06.444Z,3.57
2019-03-11T16:32:37.404Z,2.60
2019-03-11T16:35:04.520Z,2.30
2019-03-11T16:37:32.973Z,2.23
2019-03-11T16:40:01.008Z,1.97
2019-03-11T16:42:29.060Z,2.30
2019-03-11T16:44:57.256Z,2.10
2019-03-11T16:47:25.321Z,1.90
2019-03-11T16:49:53.357Z,1.60
2019-03-11T16:52:21.613Z,1.90
2019-03-11T16:54:49.677Z,2.90
2019-03-11T16:57:17.779Z,2.10
2019-03-11T16:59:45.896Z,1.83
2019-03-11T17:02:13.992Z,2.70
2019-03-11T17:04:42.037Z,3.43
2019-03-11T17:07:10.232Z,2.67
2019-03-11T17:09:38.311Z,2.77
2019-03-11T17:12:06.348Z,2.20
2019-03-11T17:14:34.561Z,2.10
2019-03-11T17:17:02.605Z,3.73
2019-03-11T17:19:30.660Z,2.50
2019-03-11T17:21:58.844Z,2.73
2019-03-11T17:24:26.894Z,3.70
2019-03-11T17:26:54.926Z,3.87
2019-03-11T17:29:23.163Z,3.23
2019-03-11T17:31:51.222Z,3.20
2019-03-11T17:34:19.322Z,2.90
2019-03-11T17:36:47.742Z,3.20
2019-03-11T17:39:15.948Z,5.00
2019-03-11T17:41:44.078Z,3.33
2019-03-11T17:44:12.147Z,3.27
2019-03-11T17:46:40.406Z,3.60
2019-03-11T17:49:08.544Z,3.30
2019-03-11T17:51:36.833Z,4.20
2019-03-11T17:54:04.892Z,4.67
2019-03-11T17:56:33.589Z,5.87
2019-03-11T17:59:01.833Z,4.87
2019-03-11T18:01:29.930Z,4.33
2019-03-11T18:03:57.990Z,5.20
2019-03-11T18:06:26.175Z,6.07
2019-03-11T18:08:54.219Z,5.10
2019-03-11T18:11:22.279Z,5.67
2019-03-11T18:13:50.468Z,6.80
2019-03-11T18:16:18.507Z,5.80
2019-03-11T18:18:46.598Z,7.70
2019-03-11T18:21:14.995Z,5.47
2019-03-11T18:23:43.054Z,6.00
2019-03-11T18:26:12.084Z,5.63
2019-03-11T18:28:40.469Z,4.97
2019-03-11T18:31:08.614Z,4.93
2019-03-11T18:33:36.656Z,7.43
2019-03-11T18:36:07.502Z,7.10
2019-03-11T18:38:34.686Z,5.90
2019-03-11T18:41:02.712Z,5.73
2019-03-11T18:43:42.221Z,8.37
2019-03-11T18:46:01.117Z,7.23
2019-03-11T18:48:29.144Z,5.70
2019-03-11T18:50:57.315Z,5.63
2019-03-11T18:53:25.378Z,5.40
2019-03-11T18:55:53.862Z,6.77
2019-03-11T18:58:22.001Z,6.40
2019-03-11T19:00:50.048Z,8.47
2019-03-11T19:03:18.130Z,8.50
2019-03-11T19:05:46.224Z,7.97
2019-03-11T19:08:14.297Z,7.67
2019-03-11T19:10:42.328Z,6.50
2019-03-11T19:13:10.658Z,9.83
2019-03-11T19:15:38.815Z,11.13
2019-03-11T19:18:06.904Z,7.67
2019-03-11T19:20:35.329Z,9.63
2019-03-11T19:23:03.736Z,8.40
2019-03-11T19:25:31.816Z,8.43
2019-03-11T19:28:00.032Z,8.17
2019-03-11T19:30:28.107Z,11.53
2019-03-11T19:32:56.168Z,8.73
2019-03-11T19:35:24.480Z,9.50
2019-03-11T19:37:52.620Z,8.87
2019-03-11T19:40:20.718Z,10.40
2019-03-11T19:42:48.862Z,11.00
2019-03-11T19:45:17.288Z,8.90
2019-03-11T19:47:45.346Z,11.10
2019-03-11T19:50:14.018Z,9.33
2019-03-11T19:52:42.053Z,8.97
2019-03-11T19:55:10.452Z,11.97
2019-03-11T19:57:38.575Z,11.83
2019-03-11T20:00:06.961Z,10.70
2019-03-11T20:02:35.077Z,12.47
2019-03-11T20:05:04.366Z,12.43
2019-03-11T20:07:32.425Z,13.37
2019-03-11T20:10:00.547Z,11.60
2019-03-11T20:12:28.626Z,13.50
2019-03-11T20:14:56.694Z,10.97
2019-03-11T20:17:24.769Z,12.67
2019-03-11T20:19:52.843Z,12.20
2019-03-11T20:22:20.946Z,13.57
2019-03-11T20:24:49.046Z,13.13
2019-03-11T20:27:17.330Z,9.20
2019-03-11T20:29:45.425Z,11.17
2019-03-11T20:32:13.481Z,14.40
2019-03-11T20:34:41.740Z,10.43
2019-03-11T20:37:09.772Z,12.70
2019-03-11T20:39:37.825Z,14.43
2019-03-11T20:42:05.911Z,11.23
2019-03-11T20:44:33.977Z,12.03
2019-03-11T20:47:02.027Z,8.57
2019-03-11T20:49:30.777Z,13.03
2019-03-11T20:51:59.828Z,7.50
2019-03-11T20:54:30.705Z,10.77
2019-03-11T20:57:00.785Z,10.87
2019-03-11T20:59:27.535Z,11.43
2019-03-11T21:01:55.534Z,10.50
2019-03-11T21:04:23.796Z,8.83
2019-03-11T21:06:51.825Z,6.80
2019-03-11T21:09:19.866Z,11.60
2019-03-11T21:11:48.104Z,13.47
2019-03-11T21:14:16.140Z,7.50
2019-03-11T21:16:44.248Z,9.57
2019-03-11T21:19:12.453Z,8.93
2019-03-11T21:21:40.566Z,8.23
2019-03-11T21:24:08.690Z,9.07
2019-03-11T21:26:37.119Z,11.67
2019-03-11T21:29:05.238Z,8.67
2019-03-11T21:31:33.972Z,9.93
2019-03-11T21:34:02.183Z,10.67
2019-03-11T21:36:30.259Z,8.80
2019-03-11T21:38:58.334Z,10.43
2019-03-11T21:41:26.525Z,8.93
2019-03-11T21:43:54.619Z,8.67
2019-03-11T21:46:22.650Z,13.43
2019-03-11T21:48:51.112Z,10.20
2019-03-11T21:51:19.165Z,9.13
2019-03-11T21:53:47.376Z,10.10
2019-03-11T21:56:15.448Z,8.80
2019-03-11T21:58:43.579Z,9.93
2019-03-11T22:01:13.833Z,9.77
2019-03-11T22:03:41.508Z,7.93
2019-03-11T22:06:09.584Z,8.00
2019-03-11T22:08:37.644Z,10.33
2019-03-11T22:11:05.955Z,7.47
2019-03-11T22:13:33.998Z,10.90
2019-03-11T22:16:02.080Z,10.57
2019-03-11T22:18:30.211Z,10.77
2019-03-11T22:20:58.252Z,10.43
2019-03-11T22:23:26.282Z,9.77
2019-03-11T22:25:54.365Z,10.17
2019-03-11T22:28:22.405Z,11.20
2019-03-11T22:30:50.453Z,11.20
2019-03-11T22:33:18.757Z,11.03
2019-03-11T22:35:46.801Z,9.23
2019-03-11T22:38:14.872Z,8.27
2019-03-11T22:40:42.998Z,9.43
2019-03-11T22:43:11.049Z,8.80
2019-03-11T22:45:39.113Z,11.07
2019-03-11T22:48:07.195Z,13.23
2019-03-11T22:50:35.255Z,13.13
2019-03-11T22:53:03.294Z,11.00
2019-03-11T22:55:31.468Z,12.27
2019-03-11T22:57:59.702Z,8.33
2019-03-11T23:00:41.645Z,8.37
2019-03-11T23:03:09.842Z,10.07
2019-03-11T23:05:37.898Z,10.30
2019-03-11T23:08:05.994Z,8.77
2019-03-11T23:10:34.163Z,11.43
2019-03-11T23:13:02.213Z,8.97
2019-03-11T23:15:30.564Z,12.27
2019-03-11T23:17:58.612Z,8.40
2019-03-11T23:20:26.719Z,9.83
2019-03-11T23:22:54.761Z,11.67
2019-03-11T23:25:22.804Z,8.03
2019-03-11T23:27:50.854Z,8.93
2019-03-11T23:30:19.034Z,8.53
2019-03-11T23:32:47.069Z,9.27
2019-03-11T23:35:15.106Z,8.80
2019-03-11T23:37:43.549Z,8.57
2019-03-11T23:40:12.016Z,5.93
2019-03-11T23:42:40.069Z,9.50
2019-03-11T23:45:08.267Z,9.30
2019-03-11T23:47:36.325Z,5.93
2019-03-11T23:50:04.618Z,7.10
2019-03-11T23:52:34.836Z,11.03
2019-03-11T23:55:02.878Z,10.17
2019-03-11T23:57:30.921Z,14.00
2019-03-11T23:59:59.735Z,9.97
